createdAt,value
2018-08-23T00:00:37.995Z,20.29
2018-08-23T00:03:15.680Z,20.22
2018-08-23T00:05:49.496Z,20.16
2018-08-23T00:08:17.608Z,20.03
2018-08-23T00:10:45.924Z,20.06
2018-08-23T00:13:14.015Z,20.09
2018-08-23T00:15:42.178Z,20.03
2018-08-23T00:18:10.300Z,20.08
2018-08-23T00:20:38.739Z,20.08
2018-08-23T00:23:07.896Z,20.19
2018-08-23T00:25:36.740Z,20.24
2018-08-23T00:28:05.219Z,20.15
2018-08-23T00:30:34.524Z,20.11
2018-08-23T00:33:03.710Z,20.06
2018-08-23T00:35:32.503Z,20.04
2018-08-23T00:38:01.508Z,20.02
2018-08-23T00:40:29.658Z,19.96
2018-08-23T00:43:03.220Z,20.00
2018-08-23T00:45:31.720Z,20.09
2018-08-23T00:47:59.856Z,20.19
2018-08-23T00:51:05.669Z,20.04
2018-08-23T00:53:35.181Z,19.90
2018-08-23T00:56:18.607Z,19.83
2018-08-23T00:58:54.263Z,19.77
2018-08-23T01:01:23.380Z,19.68
2018-08-23T01:03:52.558Z,19.68
2018-08-23T01:06:25.570Z,19.65
2018-08-23T01:08:54.595Z,19.60
2018-08-23T01:11:22.728Z,19.62
2018-08-23T01:13:51.504Z,19.52
2018-08-23T01:16:19.610Z,19.46
2018-08-23T01:18:47.839Z,19.39
2018-08-23T01:21:15.952Z,19.29
2018-08-23T01:23:44.279Z,19.36
2018-08-23T01:26:12.560Z,19.47
2018-08-23T01:28:40.728Z,19.39
2018-08-23T01:31:21.840Z,19.28
2018-08-23T01:33:53.213Z,19.25
2018-08-23T01:36:25.962Z,19.14
2018-08-23T01:38:54.137Z,19.31
2018-08-23T01:41:22.235Z,19.33
2018-08-23T01:43:51.150Z,19.25
2018-08-23T01:46:19.232Z,19.14
2018-08-23T01:48:51.128Z,19.07
2018-08-23T01:51:19.220Z,19.04
2018-08-23T01:53:49.044Z,19.04
2018-08-23T01:56:17.922Z,19.00
2018-08-23T01:58:46.053Z,19.02
2018-08-23T02:01:20.005Z,18.95
2018-08-23T02:03:48.361Z,18.92
2018-08-23T02:06:16.496Z,18.88
2018-08-23T02:08:46.043Z,18.82
2018-08-23T02:11:14.410Z,18.85
2018-08-23T02:13:42.860Z,18.85
2018-08-23T02:16:11.029Z,18.82
2018-08-23T02:18:39.142Z,18.72
2018-08-23T02:21:11.093Z,18.58
2018-08-23T02:23:50.483Z,18.68
2018-08-23T02:26:18.607Z,18.66
2018-08-23T02:28:48.267Z,18.63
2018-08-23T02:31:16.435Z,18.59
2018-08-23T02:33:45.492Z,18.55
2018-08-23T02:36:19.606Z,18.66
2018-08-23T02:38:51.053Z,18.62
2018-08-23T02:41:19.194Z,18.44
2018-08-23T02:43:47.859Z,18.37
2018-08-23T02:46:16.215Z,18.47
2018-08-23T02:48:44.615Z,18.58
2018-08-23T02:51:12.770Z,18.56
2018-08-23T02:53:43.118Z,18.47
2018-08-23T02:56:13.114Z,18.44
2018-08-23T02:59:00.028Z,18.37
2018-08-23T03:01:30.780Z,18.44
2018-08-23T03:04:09.816Z,18.61
2018-08-23T03:06:43.958Z,18.49
2018-08-23T03:09:12.546Z,18.47
2018-08-23T03:11:40.657Z,18.45
2018-08-23T03:14:08.819Z,18.38
2018-08-23T03:16:48.906Z,18.42
2018-08-23T03:19:17.218Z,18.37
2018-08-23T03:21:45.976Z,18.36
2018-08-23T03:24:18.556Z,18.45
2018-08-23T03:26:48.271Z,18.42
2018-08-23T03:29:16.861Z,18.36
2018-08-23T03:31:44.979Z,18.41
2018-08-23T03:34:13.093Z,18.48
2018-08-23T03:36:41.183Z,18.40
2018-08-23T03:39:09.769Z,18.34
2018-08-23T03:41:38.237Z,18.28
2018-08-23T03:44:16.327Z,18.23
2018-08-23T03:46:52.022Z,18.30
2018-08-23T03:49:25.131Z,18.28
2018-08-23T03:51:54.205Z,18.29
2018-08-23T03:54:22.312Z,18.29
2018-08-23T03:57:05.926Z,18.32
2018-08-23T03:59:35.290Z,18.46
2018-08-23T04:02:03.424Z,18.45
2018-08-23T04:04:32.440Z,18.60
2018-08-23T04:07:00.555Z,18.45
2018-08-23T04:09:29.195Z,18.38
2018-08-23T04:11:57.535Z,18.34
2018-08-23T04:14:25.627Z,18.32
2018-08-23T04:16:54.041Z,18.39
2018-08-23T04:19:22.510Z,18.31
2018-08-23T04:21:51.222Z,18.27
2018-08-23T04:24:20.347Z,18.26
2018-08-23T04:26:48.513Z,18.20
2018-08-23T04:29:32.686Z,18.05
2018-08-23T04:32:02.559Z,17.81
2018-08-23T04:34:32.988Z,17.85
2018-08-23T04:37:01.105Z,17.83
2018-08-23T04:39:29.207Z,17.92
2018-08-23T04:42:02.395Z,18.05
2018-08-23T04:44:42.360Z,18.16
2018-08-23T04:47:11.708Z,18.24
2018-08-23T04:49:40.087Z,18.44
2018-08-23T04:52:08.682Z,18.23
2018-08-23T04:54:36.791Z,18.26
2018-08-23T04:57:04.904Z,18.35
2018-08-23T04:59:32.971Z,18.40
2018-08-23T05:02:01.075Z,18.41
2018-08-23T05:04:29.184Z,18.47
2018-08-23T05:06:57.292Z,18.50
2018-08-23T05:09:25.502Z,18.59
2018-08-23T05:11:53.584Z,18.50
2018-08-23T05:14:22.631Z,18.48
2018-08-23T05:16:50.783Z,18.48
2018-08-23T05:19:18.879Z,18.63
2018-08-23T05:21:46.985Z,18.74
2018-08-23T05:24:15.193Z,18.88
2018-08-23T05:26:43.399Z,18.97
2018-08-23T05:29:11.540Z,19.09
2018-08-23T05:31:39.696Z,19.06
2018-08-23T05:34:08.843Z,19.25
2018-08-23T05:36:36.998Z,19.34
2018-08-23T05:39:08.121Z,19.31
2018-08-23T05:41:36.342Z,19.33
2018-08-23T05:44:13.491Z,19.35
2018-08-23T05:46:48.452Z,19.46
2018-08-23T05:49:16.603Z,19.43
2018-08-23T05:51:45.352Z,19.52
2018-08-23T05:54:13.495Z,19.66
2018-08-23T05:56:42.182Z,19.77
2018-08-23T05:59:15.269Z,20.01
2018-08-23T06:01:44.160Z,20.01
2018-08-23T06:04:12.345Z,20.24
2018-08-23T06:06:40.821Z,20.46
2018-08-23T06:09:13.091Z,20.84
2018-08-23T06:11:41.456Z,21.53
2018-08-23T06:14:09.657Z,22.04
2018-08-23T06:16:46.012Z,22.48
2018-08-23T06:19:14.692Z,23.00
2018-08-23T06:21:42.857Z,23.38
2018-08-23T06:24:11.269Z,23.34
2018-08-23T06:26:46.318Z,23.13
2018-08-23T06:29:20.517Z,23.09
2018-08-23T06:31:59.927Z,23.10
2018-08-23T06:34:32.835Z,23.06
2018-08-23T06:37:00.943Z,22.87
2018-08-23T06:39:29.080Z,22.44
2018-08-23T06:41:58.582Z,22.12
2018-08-23T06:44:34.142Z,22.36
2018-08-23T06:47:02.360Z,22.49
2018-08-23T06:49:30.484Z,22.94
2018-08-23T06:52:10.132Z,23.15
2018-08-23T06:54:38.269Z,23.36
2018-08-23T06:57:06.376Z,23.61
2018-08-23T06:59:34.584Z,23.93
2018-08-23T07:02:02.731Z,24.30
2018-08-23T07:04:30.845Z,24.51
2018-08-23T07:06:58.967Z,24.62
2018-08-23T07:09:27.083Z,24.80
2018-08-23T07:12:04.603Z,24.86
2018-08-23T07:14:34.050Z,24.85
2018-08-23T07:17:16.735Z,24.45
2018-08-23T07:19:45.045Z,24.58
2018-08-23T07:22:16.119Z,24.76
2018-08-23T07:24:45.443Z,24.48
2018-08-23T07:27:14.679Z,24.43
2018-08-23T07:29:46.027Z,24.49
2018-08-23T07:32:21.955Z,24.91
2018-08-23T07:34:59.191Z,25.34
2018-08-23T07:37:27.330Z,25.32
2018-08-23T07:40:00.947Z,25.34
2018-08-23T07:42:31.062Z,25.53
2018-08-23T07:44:59.964Z,25.60
2018-08-23T07:47:28.346Z,25.52
2018-08-23T07:49:58.369Z,25.72
2018-08-23T07:52:28.458Z,25.79
2018-08-23T07:54:57.389Z,25.78
2018-08-23T07:57:25.792Z,25.77
2018-08-23T07:59:57.768Z,25.85
2018-08-23T08:02:26.415Z,25.86
2018-08-23T08:04:54.611Z,25.90
2018-08-23T08:07:28.470Z,25.91
2018-08-23T08:09:57.684Z,25.85
2018-08-23T08:12:37.500Z,25.84
2018-08-23T08:15:12.128Z,25.69
2018-08-23T08:17:40.228Z,25.90
2018-08-23T08:20:09.833Z,26.11
2018-08-23T08:22:38.024Z,26.27
2018-08-23T08:25:17.683Z,25.95
2018-08-23T08:27:46.148Z,26.11
2018-08-23T08:30:16.824Z,25.97
2018-08-23T08:32:45.459Z,26.14
2018-08-23T08:35:15.207Z,26.25
2018-08-23T08:37:43.993Z,26.30
2018-08-23T08:40:18.394Z,26.44
2018-08-23T08:42:46.496Z,26.27
2018-08-23T08:45:14.734Z,26.10
2018-08-23T08:47:44.340Z,26.30
2018-08-23T08:50:12.443Z,26.34
2018-08-23T08:52:40.590Z,26.48
2018-08-23T08:55:10.323Z,26.59
2018-08-23T08:57:41.641Z,26.70
2018-08-23T09:00:10.293Z,26.95
2018-08-23T09:02:38.448Z,27.14
2018-08-23T09:05:06.681Z,27.34
2018-08-23T09:07:35.783Z,27.59
2018-08-23T09:10:04.472Z,27.66
2018-08-23T09:12:33.051Z,27.99
2018-08-23T09:15:01.147Z,28.17
2018-08-23T09:17:45.492Z,27.91
2018-08-23T09:20:16.800Z,27.61
2018-08-23T09:22:53.915Z,27.36
2018-08-23T09:25:29.458Z,27.44
2018-08-23T09:27:57.552Z,27.71
2018-08-23T09:30:25.901Z,27.83
2018-08-23T09:32:54.116Z,27.97
2018-08-23T09:35:26.407Z,28.05
2018-08-23T09:37:56.611Z,28.13
2018-08-23T09:40:25.247Z,28.10
2018-08-23T09:42:53.463Z,28.38
2018-08-23T09:45:22.107Z,28.34
2018-08-23T09:47:50.234Z,28.56
2018-08-23T09:50:18.445Z,28.48
2018-08-23T09:52:48.709Z,28.77
2018-08-23T09:55:19.089Z,28.99
2018-08-23T09:57:47.717Z,29.26
2018-08-23T10:00:21.640Z,29.29
2018-08-23T10:02:55.366Z,29.45
2018-08-23T10:05:28.980Z,29.72
2018-08-23T10:08:02.759Z,29.64
2018-08-23T10:10:36.291Z,30.23
2018-08-23T10:13:10.000Z,30.12
2018-08-23T10:15:43.949Z,30.44
2018-08-23T10:18:17.621Z,30.22
2018-08-23T10:20:51.182Z,30.27
2018-08-23T10:23:22.180Z,30.61
2018-08-23T10:25:51.367Z,30.76
2018-08-23T10:28:20.709Z,30.96
2018-08-23T10:30:49.068Z,31.01
2018-08-23T10:33:17.560Z,30.87
2018-08-23T10:35:46.742Z,30.53
2018-08-23T22:13:10.867Z,22.13
2018-08-23T22:15:44.347Z,22.17
2018-08-23T22:18:12.440Z,22.02
2018-08-23T22:20:40.542Z,22.00
2018-08-23T22:23:08.660Z,22.08
2018-08-23T22:25:37.316Z,22.12
2018-08-23T22:28:05.718Z,22.09
2018-08-23T22:30:33.845Z,21.91
2018-08-23T22:33:01.979Z,21.83
2018-08-23T22:35:30.253Z,21.80
2018-08-23T22:37:58.387Z,21.70
2018-08-23T22:40:26.852Z,21.68
2018-08-23T22:42:54.976Z,21.49
2018-08-23T22:45:23.118Z,21.50
2018-08-23T22:47:51.227Z,21.56
2018-08-23T22:50:19.328Z,21.57
2018-08-23T22:52:47.436Z,21.54
2018-08-23T22:55:15.553Z,21.40
2018-08-23T22:57:43.664Z,21.31
2018-08-23T23:00:11.757Z,21.23
2018-08-23T23:02:40.788Z,21.25
2018-08-23T23:05:09.437Z,21.08
2018-08-23T23:07:37.564Z,20.83
2018-08-23T23:10:06.141Z,20.87
2018-08-23T23:12:34.248Z,20.86
2018-08-23T23:15:06.187Z,20.69
2018-08-23T23:17:34.858Z,20.65
2018-08-23T23:20:02.959Z,20.60
2018-08-23T23:22:31.072Z,20.59
2018-08-23T23:25:01.403Z,20.29
2018-08-23T23:27:29.723Z,20.27
2018-08-23T23:29:58.280Z,20.26
2018-08-23T23:32:26.412Z,20.14
2018-08-23T23:34:54.891Z,20.10
2018-08-23T23:37:23.327Z,20.15
2018-08-23T23:39:51.472Z,20.09
2018-08-23T23:42:19.567Z,20.08
2018-08-23T23:44:47.676Z,20.09
2018-08-23T23:47:15.779Z,20.07
2018-08-23T23:49:43.935Z,20.07
2018-08-23T23:52:12.438Z,20.02
2018-08-23T23:54:40.536Z,20.05
2018-08-23T23:57:08.937Z,19.96
2018-08-23T23:59:37.042Z,19.95
